Time;durP1;ratioP1;P1;durP2;ratioP2;P2;SDS_P1;SDS_P2;PMS_P1;PMS_P2;Temp;Humidity;BMP_temperature;BMP_pressure;BME280_temperature;BME280_humidity;BME280_pressure;Samples;Min_cycle;Max_cycle;Signal;HPM_P1;HPM_P2
2023/01/31 00:04:03;;;;;;;4.72;4.18;;;;;;;3.34;67.31;99441.84;7683577;32;37898;-84
2023/01/31 00:08:19;;;;;;;6.18;4.07;;;;;;;3.09;69.32;99438.56;7673878;32;39281;-83
2023/01/31 00:12:35;;;;;;;6.20;4.43;;;;;;;3.09;69.65;99422.41;7656553;32;40675;-84
2023/01/31 00:16:52;;;;;;;6.10;4.45;;;;;;;2.81;70.79;99431.91;7656517;32;37563;-84
2023/01/31 00:21:15;;;;;;;8.00;4.70;;;;;;;3.03;70.52;99416.03;7655330;32;37198;-84
2023/01/31 00:25:31;;;;;;;6.63;4.43;;;;;;;3.46;68.77;99406.03;7668272;32;39421;-83
2023/01/31 00:29:47;;;;;;;8.63;4.90;;;;;;;3.76;67.42;99412.09;7657101;32;39849;-82
2023/01/31 00:34:03;;;;;;;5.70;3.95;;;;;;;3.21;69.28;99425.94;7658797;32;38745;-83
2023/01/31 00:38:20;;;;;;;6.07;4.22;;;;;;;3.10;68.54;99429.41;7683274;32;36882;-83
2023/01/31 00:42:36;;;;;;;9.27;4.68;;;;;;;3.04;69.08;99422.28;7665774;32;39341;-75
2023/01/31 00:46:53;;;;;;;5.90;4.32;;;;;;;3.33;67.97;99429.44;7669543;32;40803;-76
2023/01/31 00:51:10;;;;;;;8.55;4.43;;;;;;;2.84;69.83;99439.53;7659300;32;37855;-82
2023/01/31 00:55:26;;;;;;;5.32;4.28;;;;;;;2.79;68.88;99440.25;7657476;32;37043;-83
2023/01/31 00:59:42;;;;;;;5.47;4.03;;;;;;;2.99;68.21;99450.69;7657080;32;39339;-83
2023/01/31 01:03:58;;;;;;;5.93;4.10;;;;;;;3.67;66.05;99451.25;7656935;32;40909;-84
2023/01/31 01:08:15;;;;;;;5.22;4.22;;;;;;;3.67;65.86;99439.66;7657153;32;38678;-83
2023/01/31 01:12:32;;;;;;;5.75;3.80;;;;;;;2.86;66.91;99453.59;7660263;32;36911;-83
2023/01/31 01:16:49;;;;;;;7.55;4.07;;;;;;;3.22;65.85;99451.81;7660403;32;39392;-84
2023/01/31 01:21:12;;;;;;;5.43;3.80;;;;;;;3.74;64.33;99456.53;7660490;32;39712;-82
2023/01/31 01:25:28;;;;;;;6.07;3.60;;;;;;;3.64;63.84;99476.00;7661294;32;37970;-85
2023/01/31 01:29:44;;;;;;;5.97;3.40;;;;;;;3.81;63.13;99467.19;7646361;32;37175;-84
2023/01/31 01:34:07;;;;;;;7.90;3.65;;;;;;;4.07;62.32;99466.72;7659832;32;40181;-83
2023/01/31 01:38:23;;;;;;;6.05;3.80;;;;;;;3.58;63.56;99487.69;7660252;32;39760;-83
2023/01/31 01:42:40;;;;;;;7.45;3.75;;;;;;;4.24;61.52;99482.16;7633077;32;38134;-83
2023/01/31 01:46:58;;;;;;;8.25;3.45;;;;;;;3.70;62.44;99485.84;7633298;32;37845;-84
2023/01/31 01:51:15;;;;;;;8.45;3.60;;;;;;;4.34;60.91;99482.37;7660125;32;37003;-83
2023/01/31 01:55:34;;;;;;;9.07;3.30;;;;;;;4.20;61.07;99489.09;7659104;32;39927;-84
2023/01/31 01:59:59;;;;;;;6.93;3.05;;;;;;;4.22;60.63;99489.66;7659089;32;37985;-84
2023/01/31 02:04:20;;;;;;;8.00;3.37;;;;;;;4.40;60.47;99484.13;7646437;32;36955;-84
2023/01/31 02:08:38;;;;;;;6.32;3.20;;;;;;;4.49;59.86;99485.38;7645907;32;40105;-85
2023/01/31 02:12:54;;;;;;;6.37;2.97;;;;;;;4.36;60.82;99491.03;7645627;32;40898;-84
2023/01/31 02:17:16;;;;;;;5.57;3.00;;;;;;;4.52;60.14;99489.50;7645785;32;37923;-85
2023/01/31 02:21:57;;;;;;;4.03;2.78;;;;;;;4.27;60.96;99477.09;7684481;32;37860;-85
2023/01/31 02:26:52;;;;;;;5.93;2.90;;;;;;;4.14;61.52;99472.78;7685540;32;39308;-84
2023/01/31 02:31:43;;;;;;;3.97;3.22;;;;;;;4.25;61.00;99475.72;7685116;32;40507;-85
2023/01/31 02:36:05;;;;;;;3.33;3.03;;;;;;;3.94;61.93;99483.13;7658834;32;37810;-84
2023/01/31 02:40:46;;;;;;;3.22;2.92;;;;;;;4.04;61.59;99483.37;7658960;32;37809;-85
2023/01/31 02:45:21;;;;;;;8.52;3.12;;;;;;;3.43;63.43;99485.44;7643926;32;39381;-83
2023/01/31 02:49:45;;;;;;;8.32;3.12;;;;;;;3.43;63.05;99492.72;7646312;32;40771;-84
2023/01/31 02:54:08;;;;;;;;;;;;;;;3.23;63.81;99510.03;7659596;32;37626;-84
2023/01/31 02:58:32;;;;;;;3.17;2.93;;;;;;;3.32;62.79;99510.53;7659170;32;36970;-83
2023/01/31 03:02:48;;;;;;;4.78;3.12;;;;;;;3.98;61.06;99522.06;7653910;32;39426;-86
2023/01/31 03:07:28;;;;;;;5.37;3.25;;;;;;;3.93;60.80;99519.25;7684870;32;40910;-85
2023/01/31 03:12:08;;;;;;;8.65;3.22;;;;;;;3.64;61.28;99526.38;7683716;32;37921;-84
2023/01/31 03:21:23;;;;;;;5.57;3.03;;;;;;;3.98;60.28;99551.72;7672885;32;39421;-84
2023/01/31 03:25:39;;;;;;;7.72;3.20;;;;;;;3.63;61.12;99538.22;7671583;32;39952;-83
2023/01/31 03:30:00;;;;;;;5.30;2.80;;;;;;;3.48;61.42;99561.03;7671068;32;38531;-82
2023/01/31 03:34:16;;;;;;;5.10;3.20;;;;;;;3.70;60.16;99572.09;7671180;32;37819;-84
2023/01/31 03:38:35;;;;;;;8.88;3.30;;;;;;;3.92;59.81;99574.25;7670963;32;39388;-85
2023/01/31 03:43:25;;;;;;;3.30;2.87;;;;;;;3.68;60.46;99579.63;7684255;32;39937;-85
2023/01/31 03:47:44;;;;;;;7.82;3.65;;;;;;;3.88;59.73;99578.47;7684435;32;38642;-85
2023/01/31 03:52:05;;;;;;;5.65;2.92;;;;;;;3.27;61.43;99596.59;7660052;32;37099;-88
2023/01/31 03:56:27;;;;;;;10.90;3.33;;;;;;;3.72;59.91;99602.34;7644679;32;40079;-84
2023/01/31 04:00:46;;;;;;;8.67;3.40;;;;;;;4.01;58.80;99599.81;7657664;32;39755;-84
2023/01/31 04:05:09;;;;;;;13.32;3.95;;;;;;;4.08;58.79;99610.50;7657544;32;37612;-84
2023/01/31 04:09:25;;;;;;;5.55;3.45;;;;;;;3.66;59.89;99595.22;7644417;32;35527;-84
2023/01/31 04:13:42;;;;;;;7.05;3.17;;;;;;;3.94;59.71;99601.81;7657187;32;40833;-84
2023/01/31 04:17:58;;;;;;;3.47;3.00;;;;;;;4.20;59.09;99594.31;7652918;32;39898;-84
2023/01/31 04:22:15;;;;;;;3.78;2.92;;;;;;;3.89;59.57;99605.19;7683330;32;38582;-84
2023/01/31 04:26:31;;;;;;;3.67;2.90;;;;;;;3.61;60.38;99613.13;7683469;32;36986;-84
2023/01/31 04:30:55;;;;;;;7.30;3.28;;;;;;;4.11;59.49;99616.25;7683459;32;39885;-84
2023/01/31 04:35:11;;;;;;;;;;;;;;;4.04;59.88;99623.66;7683475;32;40089;-85
2023/01/31 04:39:27;;;;;;;4.43;3.22;;;;;;;3.96;60.61;99623.97;7683177;32;39430;-84
2023/01/31 04:43:44;;;;;;;4.62;2.80;;;;;;;3.80;61.09;99622.78;7683008;32;37797;-84
2023/01/31 04:48:00;;;;;;;4.45;2.83;;;;;;;3.52;63.21;99631.50;7686052;32;39334;-83
2023/01/31 04:52:16;;;;;;;5.40;3.37;;;;;;;3.71;63.61;99635.78;7692237;32;40852;-79
2023/01/31 04:56:33;;;;;;;5.62;3.20;;;;;;;3.66;64.23;99632.94;7699249;32;38121;-76
2023/01/31 05:00:49;;;;;;;5.97;3.10;;;;;;;3.38;66.68;99631.69;7690737;32;37312;-83
2023/01/31 05:05:06;;;;;;;3.85;2.72;;;;;;;3.78;66.04;99637.53;7676535;32;40637;-85
2023/01/31 05:09:23;;;;;;;3.05;2.72;;;;;;;4.04;65.48;99639.84;7672418;32;40248;-83
2023/01/31 05:13:41;;;;;;;3.65;2.70;;;;;;;4.02;65.36;99636.56;7681906;32;37711;-83
2023/01/31 05:18:01;;;;;;;2.87;2.60;;;;;;;4.08;65.12;99640.19;7645977;32;37848;-83
2023/01/31 05:22:21;;;;;;;4.53;2.90;;;;;;;4.08;65.38;99650.97;7659685;32;40104;-83
2023/01/31 05:26:37;;;;;;;5.15;2.87;;;;;;;4.02;65.23;99652.72;7659642;32;39923;-82
2023/01/31 05:31:00;;;;;;;3.20;2.90;;;;;;;3.79;66.05;99663.47;7659363;32;37610;-83
2023/01/31 05:35:16;;;;;;;5.12;2.95;;;;;;;3.57;65.76;99661.28;7659476;32;37796;-83
2023/01/31 05:39:34;;;;;;;4.55;2.97;;;;;;;3.42;66.68;99677.06;7659359;32;40163;-83
2023/01/31 05:43:50;;;;;;;5.12;2.87;;;;;;;3.83;64.90;99676.25;7659144;32;40003;-85
2023/01/31 05:48:07;;;;;;;7.87;3.35;;;;;;;3.99;63.98;99680.16;7683503;32;37942;-85
2023/01/31 05:52:23;;;;;;;5.65;3.12;;;;;;;3.81;64.16;99685.62;7685601;32;37807;-83
2023/01/31 05:56:39;;;;;;;3.20;2.90;;;;;;;3.86;63.72;99683.06;7685355;32;39142;-84
2023/01/31 06:00:56;;;;;;;8.52;3.05;;;;;;;3.35;64.96;99690.59;7685560;32;39913;-82
2023/01/31 06:05:12;;;;;;;3.60;2.62;;;;;;;3.35;64.72;99690.59;7685491;32;38607;-84
2023/01/31 06:09:29;;;;;;;5.75;3.05;;;;;;;3.80;62.62;99684.00;7685533;32;37064;-85
2023/01/31 06:13:47;;;;;;;4.32;2.83;;;;;;;3.28;63.74;99711.44;7683704;32;39322;-84
2023/01/31 06:18:03;;;;;;;5.28;3.50;;;;;;;3.17;63.93;99704.91;7685224;32;39939;-82
2023/01/31 06:22:20;;;;;;;4.78;3.10;;;;;;;3.41;63.48;99713.13;7685147;32;37790;-83
2023/01/31 06:26:36;;;;;;;4.95;3.08;;;;;;;3.91;60.94;99721.75;7667354;32;37015;-83
2023/01/31 06:30:53;;;;;;;7.22;3.72;;;;;;;3.79;61.11;99720.09;7658696;32;39878;-85
2023/01/31 06:35:09;;;;;;;5.72;3.50;;;;;;;3.95;61.14;99730.25;7659636;32;39895;-84
2023/01/31 06:39:26;;;;;;;6.05;3.33;;;;;;;3.57;61.74;99731.38;7660839;32;37716;-83
2023/01/31 06:43:42;;;;;;;8.20;3.75;;;;;;;3.74;60.58;99743.19;7659453;32;37186;-84
2023/01/31 06:47:58;;;;;;;5.90;3.47;;;;;;;2.90;62.60;99761.75;7659635;32;40035;-84
2023/01/31 06:52:15;;;;;;;6.28;3.55;;;;;;;3.59;61.19;99764.31;7660984;32;40873;-84
2023/01/31 06:56:31;;;;;;;10.77;3.35;;;;;;;3.61;61.02;99774.88;7660783;32;37731;-83
2023/01/31 07:00:47;;;;;;;5.60;3.05;;;;;;;3.41;61.04;99775.09;7660159;32;37207;-82
2023/01/31 07:05:04;;;;;;;4.97;2.97;;;;;;;3.92;59.33;99763.88;7678277;32;39211;-83
2023/01/31 07:09:20;;;;;;;9.73;3.72;;;;;;;4.21;62.84;99779.44;7682081;32;40733;-83
2023/01/31 07:13:36;;;;;;;6.47;3.03;;;;;;;5.04;59.74;99781.22;7673809;32;39022;-82
2023/01/31 07:17:58;;;;;;;7.70;3.47;;;;;;;5.19;55.59;99791.56;7658736;32;37133;-82
2023/01/31 07:22:14;;;;;;;7.57;2.65;;;;;;;5.21;55.88;99797.53;7660256;32;40052;-78
2023/01/31 07:26:30;;;;;;;4.15;2.53;;;;;;;5.24;58.32;99804.34;7684286;32;40030;-83
2023/01/31 07:30:47;;;;;;;5.03;2.80;;;;;;;5.41;54.45;99799.03;7681629;32;37840;-84
2023/01/31 07:35:04;;;;;;;5.53;2.53;;;;;;;5.71;53.08;99814.25;7677803;32;37154;-84
2023/01/31 07:39:20;;;;;;;7.22;2.50;;;;;;;5.93;52.73;99811.72;7684639;32;39390;-84
2023/01/31 07:43:38;;;;;;;6.93;2.58;;;;;;;5.75;52.98;99816.25;7673890;32;39856;-84
2023/01/31 07:47:58;;;;;;;4.07;2.40;;;;;;;6.05;51.82;99825.25;7657762;32;37924;-84
2023/01/31 07:52:14;;;;;;;2.78;2.33;;;;;;;6.27;50.88;99815.41;7659381;32;37084;-83
2023/01/31 07:56:32;;;;;;;3.58;2.50;;;;;;;5.82;51.88;99826.94;7684312;32;38446;-83
2023/01/31 08:05:26;;;;;;;6.80;2.67;;;;;;;5.98;51.46;99837.03;7671712;32;37919;-83
2023/01/31 08:09:45;;;;;;;4.93;2.75;;;;;;;5.30;52.87;99837.75;7670025;32;37861;-83
2023/01/31 08:14:02;;;;;;;4.80;2.55;;;;;;;5.53;52.94;99840.41;7670749;32;39929;-82
2023/01/31 08:18:18;;;;;;;6.32;2.65;;;;;;;5.45;53.59;99854.31;7657174;32;39997;-82
2023/01/31 08:22:34;;;;;;;8.63;2.75;;;;;;;5.43;52.54;99851.00;7663412;32;38014;-84
2023/01/31 08:26:51;;;;;;;4.50;2.90;;;;;;;4.78;54.21;99865.44;7676574;32;37009;-84
2023/01/31 08:31:11;;;;;;;7.70;2.90;;;;;;;5.10;54.52;99878.63;7662887;32;39413;-82
2023/01/31 08:35:27;;;;;;;6.30;3.33;;;;;;;5.43;53.42;99888.84;7663492;32;40074;-84
2023/01/31 08:39:47;;;;;;;6.28;2.85;;;;;;;5.71;52.97;99890.84;7664796;32;37997;-83
2023/01/31 08:44:05;;;;;;;4.93;2.72;;;;;;;5.64;53.47;99890.97;7674069;32;37666;-82
2023/01/31 08:48:21;;;;;;;4.07;2.30;;;;;;;6.21;51.93;99894.91;7645927;32;39522;-82
2023/01/31 08:52:37;;;;;;;3.78;2.35;;;;;;;6.30;52.34;99895.34;7660910;32;41224;-78
2023/01/31 08:56:53;;;;;;;3.83;2.40;;;;;;;6.10;52.41;99896.56;7658884;32;38777;-75
2023/01/31 09:01:15;;;;;;;5.40;2.37;;;;;;;6.35;52.70;99907.06;7655554;32;37012;-81
2023/01/31 09:05:32;;;;;;;6.60;2.67;;;;;;;6.58;51.43;99910.75;7665598;32;39497;-82
2023/01/31 09:09:48;;;;;;;5.70;2.25;;;;;;;6.57;51.79;99926.19;7659914;32;39970;-82
2023/01/31 09:14:04;;;;;;;5.75;2.58;;;;;;;6.72;51.40;99924.81;7673983;32;38666;-83
2023/01/31 09:18:21;;;;;;;6.57;2.25;;;;;;;6.20;52.10;99931.13;7679251;32;37063;-81
2023/01/31 09:22:37;;;;;;;9.65;2.95;;;;;;;6.31;51.62;99929.44;7686070;32;39547;-82
2023/01/31 09:26:55;;;;;;;8.50;2.65;;;;;;;6.36;52.48;99933.09;7681252;32;40014;-82
2023/01/31 09:31:17;;;;;;;8.35;2.97;;;;;;;6.44;52.02;99936.50;7681918;32;37908;-84
2023/01/31 09:35:33;;;;;;;3.58;2.50;;;;;;;6.87;51.26;99945.97;7685940;32;37879;-84
2023/01/31 09:39:52;;;;;;;3.72;2.28;;;;;;;6.61;51.81;99950.91;7686022;32;39251;-82
2023/01/31 09:44:40;;;;;;;6.95;2.67;;;;;;;6.22;52.19;99942.53;7685704;32;39955;-82
2023/01/31 09:48:58;;;;;;;6.82;2.42;;;;;;;6.68;52.68;99948.88;7676462;32;37896;-83
2023/01/31 09:53:20;;;;;;;4.32;2.30;;;;;;;7.15;51.75;99948.63;7645811;32;37519;-84
2023/01/31 09:57:42;;;;;;;5.15;2.30;;;;;;;7.53;50.60;99952.47;7666371;32;39370;-84
2023/01/31 10:02:20;;;;;;;5.53;2.45;;;;;;;7.49;50.04;99937.78;7685653;32;40840;-83
2023/01/31 10:06:46;;;;;;;8.15;2.33;;;;;;;7.17;50.68;99947.56;7678011;32;37792;-84
2023/01/31 10:11:05;;;;;;;5.03;2.33;;;;;;;7.49;49.18;99945.91;7672237;32;37879;-86
2023/01/31 10:15:22;;;;;;;5.57;2.67;;;;;;;7.27;50.49;99953.16;7670593;32;39922;-83
2023/01/31 10:20:01;;;;;;;4.87;2.17;;;;;;;7.02;49.22;99956.25;7685247;32;40618;-84
2023/01/31 10:24:28;;;;;;;3.72;2.25;;;;;;;6.96;49.41;99956.16;7672175;32;36863;-84
2023/01/31 10:28:45;;;;;;;3.00;2.20;;;;;;;6.85;49.13;99948.09;7684991;32;37004;-84
2023/01/31 10:33:12;;;;;;;4.00;2.20;;;;;;;6.80;48.23;99956.13;7685015;32;40110;-84
2023/01/31 10:37:34;;;;;;;4.28;2.25;;;;;;;6.68;49.35;99946.16;7668374;32;40035;-85
2023/01/31 10:42:09;;;;;;;3.25;2.22;;;;;;;6.60;48.45;99945.72;7644249;32;37912;-82
2023/01/31 10:46:26;;;;;;;5.40;2.78;;;;;;;6.36;49.12;99952.06;7658622;32;37101;-82
2023/01/31 10:51:16;;;;;;;4.82;2.45;;;;;;;6.64;49.05;99946.88;7661254;32;39431;-83
2023/01/31 10:55:48;;;;;;;5.85;2.60;;;;;;;7.20;49.24;99952.50;7664690;32;40058;-83
2023/01/31 11:00:06;;;;;;;6.43;2.20;;;;;;;6.66;48.12;99942.88;7684699;32;37940;-83
2023/01/31 11:04:28;;;;;;;3.25;1.87;;;;;;;7.34;47.60;99932.13;7684420;32;37369;-84
2023/01/31 11:08:51;;;;;;;4.27;2.30;;;;;;;7.52;45.96;99929.16;7683797;32;39405;-84
2023/01/31 11:13:16;;;;;;;4.05;1.80;;;;;;;8.39;43.38;99917.81;7669965;32;39980;-84
2023/01/31 11:17:35;;;;;;;2.73;1.67;;;;;;;8.59;43.95;99922.69;7671721;32;37824;-84
2023/01/31 11:21:55;;;;;;;4.90;1.70;;;;;;;9.33;42.22;99889.34;7683933;32;36739;-85
2023/01/31 11:26:29;;;;;;;3.60;1.67;;;;;;;9.68;40.44;99890.66;7644097;32;38215;-82
2023/01/31 11:30:51;;;;;;;3.12;1.80;;;;;;;10.29;39.94;99883.84;7655553;32;40792;-84
2023/01/31 11:35:14;;;;;;;3.03;1.58;;;;;;;10.85;36.74;99883.22;7643376;32;38934;-83
2023/01/31 11:39:37;;;;;;;4.82;1.75;;;;;;;10.47;36.59;99869.78;7655657;32;34850;-82
2023/01/31 11:44:26;;;;;;;4.18;1.55;;;;;;;10.51;35.70;99881.75;7656724;32;40261;-83
2023/01/31 11:48:47;;;;;;;3.75;2.05;;;;;;;10.23;35.54;99880.31;7631563;32;40716;-84
2023/01/31 11:53:21;;;;;;;1.65;1.55;;;;;;;9.05;36.45;99901.34;7642980;32;37726;-83
2023/01/31 11:57:40;;;;;;;4.80;1.85;;;;;;;8.90;37.74;99899.34;7644376;32;38280;-84
2023/01/31 12:01:58;;;;;;;2.85;1.55;;;;;;;8.98;38.23;99893.41;7655872;32;40175;-83
2023/01/31 12:06:28;;;;;;;3.10;1.87;;;;;;;9.21;37.55;99881.38;7655882;32;38993;-84
2023/01/31 12:10:46;;;;;;;7.18;2.03;;;;;;;9.60;37.92;99869.38;7640770;32;37902;-85
2023/01/31 12:15:12;;;;;;;6.28;2.30;;;;;;;9.29;37.91;99868.38;7654876;32;37134;-84
2023/01/31 12:19:58;;;;;;;8.70;3.22;;;;;;;9.37;37.32;99849.66;7657381;32;40121;-84
2023/01/31 12:24:16;;;;;;;6.90;2.25;;;;;;;9.55;36.53;99872.06;7657075;32;40003;-84
2023/01/31 12:28:45;;;;;;;2.87;1.65;;;;;;;8.98;36.66;99877.09;7656974;32;38768;-84
2023/01/31 12:33:19;;;;;;;1.80;1.70;;;;;;;9.31;37.20;99875.19;7657308;32;36869;-84
2023/01/31 12:38:01;;;;;;;4.37;1.60;;;;;;;9.63;37.76;99877.03;7657156;32;39882;-82
2023/01/31 12:42:37;;;;;;;5.30;1.60;;;;;;;8.75;39.05;99893.75;7644299;32;40615;-83
2023/01/31 12:47:21;;;;;;;2.53;1.90;;;;;;;9.34;39.63;99882.81;7653772;32;37535;-83
2023/01/31 12:51:59;;;;;;;1.92;1.50;;;;;;;9.08;39.87;99905.47;7654237;32;37165;-83
2023/01/31 12:57:03;;;;;;;3.35;2.12;;;;;;;8.89;40.01;99894.16;7652932;32;39076;-83
2023/01/31 13:01:43;;;;;;;6.80;1.70;;;;;;;8.92;40.21;99893.66;7644743;32;39861;-82
2023/01/31 13:06:29;;;;;;;2.10;1.60;;;;;;;8.70;40.75;99899.16;7657446;32;37740;-82
2023/01/31 13:11:08;;;;;;;2.62;1.80;;;;;;;8.91;40.25;99911.84;7648257;32;37709;-83
2023/01/31 13:15:36;;;;;;;3.40;1.92;;;;;;;9.62;38.75;99934.44;7646907;32;40040;-84
2023/01/31 13:20:07;;;;;;;4.20;1.90;;;;;;;9.66;43.35;99925.50;7659943;32;39897;-82
2023/01/31 13:24:30;;;;;;;3.03;1.90;;;;;;;9.96;38.97;99921.31;7659603;32;38510;-84
2023/01/31 13:28:55;;;;;;;3.13;1.70;;;;;;;10.99;35.17;99924.41;7659724;32;37833;-83
2023/01/31 13:33:26;;;;;;;5.25;1.60;;;;;;;11.72;34.22;99915.88;7665471;32;39157;-75
2023/01/31 13:37:46;;;;;;;3.85;1.50;;;;;;;11.76;34.86;99907.97;7671248;32;40233;-80
2023/01/31 13:42:04;;;;;;;5.03;1.62;;;;;;;12.48;34.30;99905.00;7661355;32;38202;-82
2023/01/31 13:46:30;;;;;;;4.18;2.20;;;;;;;13.00;35.12;99903.56;7659618;32;37241;-84
2023/01/31 13:51:21;;;;;;;6.60;2.40;;;;;;;12.51;33.89;99901.72;7647018;32;39309;-83
2023/01/31 13:55:39;;;;;;;4.05;2.10;;;;;;;12.07;35.79;99902.44;7657132;32;40066;-83
2023/01/31 14:00:08;;;;;;;8.75;2.10;;;;;;;11.22;36.28;99915.66;7645932;32;36887;-83
2023/01/31 14:04:30;;;;;;;5.07;2.42;;;;;;;9.96;39.38;99926.75;7646980;32;37092;-83
2023/01/31 14:08:50;;;;;;;4.55;2.22;;;;;;;9.88;40.01;99933.53;7659150;32;40330;-82
2023/01/31 14:13:28;;;;;;;6.68;2.53;;;;;;;8.25;42.75;99944.53;7659021;32;38874;-82
2023/01/31 14:18:07;;;;;;;2.92;2.12;;;;;;;7.09;45.75;99952.31;7620488;32;37074;-82
2023/01/31 14:22:33;;;;;;;4.22;2.15;;;;;;;6.99;47.04;99954.84;7632754;32;37019;-80
2023/01/31 14:26:53;;;;;;;7.50;2.60;;;;;;;6.94;47.32;99957.47;7632695;32;39173;-82
2023/01/31 14:31:13;;;;;;;5.78;2.12;;;;;;;6.88;47.90;99958.44;7632642;32;39842;-82
2023/01/31 14:35:53;;;;;;;3.55;2.67;;;;;;;6.76;49.31;99967.47;7619565;32;37524;-82
2023/01/31 14:40:27;;;;;;;4.40;2.87;;;;;;;6.42;49.34;99968.41;7627640;32;37889;-85
2023/01/31 14:45:38;;;;;;;5.47;2.65;;;;;;;6.37;50.18;99969.94;7619953;32;37695;-84
2023/01/31 14:50:06;;;;;;;4.18;2.58;;;;;;;6.33;50.49;99968.78;7575445;32;40856;-85
2023/01/31 14:54:49;;;;;;;7.25;3.58;;;;;;;6.27;50.30;99967.00;7631891;32;37893;-85
2023/01/31 14:59:37;;;;;;;5.47;2.90;;;;;;;6.45;50.12;99959.78;7632259;32;37697;-85
2023/01/31 15:04:00;;;;;;;4.80;2.87;;;;;;;5.71;52.23;99971.16;7620515;32;39689;-80
2023/01/31 15:08:18;;;;;;;4.03;2.78;;;;;;;5.31;53.16;99966.44;7609606;32;315262;-84
2023/01/31 15:12:55;;;;;;;10.77;3.80;;;;;;;5.72;52.76;99967.41;7631182;32;36883;-82
2023/01/31 15:17:28;;;;;;;8.88;3.75;;;;;;;5.92;52.84;99967.88;7654688;32;37177;-82
2023/01/31 15:22:04;;;;;;;5.80;3.85;;;;;;;5.90;53.76;99967.28;7657701;32;40095;-83
2023/01/31 15:26:22;;;;;;;6.12;3.20;;;;;;;5.36;56.82;99964.66;7645203;32;39900;-82
2023/01/31 15:30:39;;;;;;;6.32;3.22;;;;;;;5.16;57.59;99959.59;7644330;32;38243;-83
2023/01/31 15:35:20;;;;;;;6.53;3.50;;;;;;;5.41;57.07;99945.06;7643907;32;38398;-83
2023/01/31 15:39:51;;;;;;;8.63;3.87;;;;;;;5.69;56.16;99938.97;7646754;32;39483;-83
2023/01/31 15:44:20;;;;;;;10.95;3.97;;;;;;;5.80;55.76;99938.09;7644997;32;40611;-83
2023/01/31 15:48:39;;;;;;;8.20;4.18;;;;;;;5.56;56.29;99931.06;7657465;32;37807;-83
2023/01/31 15:53:13;;;;;;;12.27;4.90;;;;;;;5.50;55.92;99935.53;7657615;32;36720;-82
2023/01/31 15:57:58;;;;;;;15.32;6.55;;;;;;;5.18;57.28;99937.75;7657519;32;40525;-83
2023/01/31 16:02:26;;;;;;;16.98;6.30;;;;;;;5.35;57.53;99943.28;7656102;32;40764;-84
2023/01/31 16:06:46;;;;;;;11.43;5.53;;;;;;;5.44;56.78;99945.41;7657080;32;37778;-85
2023/01/31 16:11:08;;;;;;;10.63;4.90;;;;;;;5.65;56.15;99946.69;7643832;32;37975;-84
2023/01/31 16:15:27;;;;;;;13.57;4.47;;;;;;;5.57;56.53;99954.34;7643605;32;39419;-84
2023/01/31 16:19:48;;;;;;;12.27;4.07;;;;;;;5.53;55.93;99953.16;7643451;32;39907;-85
2023/01/31 16:24:20;;;;;;;9.27;4.03;;;;;;;5.95;54.51;99947.63;7643289;32;37813;-84
2023/01/31 16:28:44;;;;;;;8.80;4.00;;;;;;;5.71;55.84;99961.19;7656996;32;38735;-84
2023/01/31 16:33:00;;;;;;;11.57;5.03;;;;;;;5.70;56.46;99958.72;7643214;32;40166;-85
2023/01/31 16:37:27;;;;;;;12.05;5.00;;;;;;;5.17;58.00;99972.03;7642917;32;40723;-84
2023/01/31 16:41:50;;;;;;;5.65;3.47;;;;;;;5.39;57.42;99963.37;7645533;32;38588;-83
2023/01/31 16:46:18;;;;;;;;;;;;;;;5.56;56.50;99958.94;7646542;32;37939;-84
2023/01/31 16:50:34;;;;;;;6.70;3.80;;;;;;;5.50;56.63;99962.56;7660107;32;39791;-84
2023/01/31 16:55:01;;;;;;;10.35;3.55;;;;;;;5.46;57.29;99958.69;7659071;32;40002;-85
2023/01/31 16:59:37;;;;;;;6.65;3.37;;;;;;;5.61;54.90;99945.53;7659711;32;38464;-83
2023/01/31 17:04:20;;;;;;;9.18;3.95;;;;;;;5.61;54.36;99944.72;7659379;32;37153;-82
2023/01/31 17:08:40;;;;;;;8.75;4.15;;;;;;;5.62;54.64;99952.59;7646717;32;39351;-83
2023/01/31 17:13:04;;;;;;;7.20;4.20;;;;;;;5.42;54.96;99946.72;7659165;32;41047;-84
2023/01/31 17:17:20;;;;;;;10.32;4.25;;;;;;;4.64;56.60;99952.03;7658779;32;37540;-83
2023/01/31 17:21:39;;;;;;;11.10;4.57;;;;;;;5.37;54.61;99949.28;7659415;32;37102;-84
2023/01/31 17:25:58;;;;;;;9.82;4.53;;;;;;;5.35;54.56;99951.41;7658980;32;39941;-84
2023/01/31 17:30:19;;;;;;;10.60;4.32;;;;;;;5.52;53.44;99944.25;7659318;32;39835;-83
2023/01/31 17:34:35;;;;;;;10.10;5.07;;;;;;;5.43;53.14;99943.78;7659269;32;38723;-84
2023/01/31 17:38:51;;;;;;;13.57;5.90;;;;;;;4.88;53.86;99936.75;7658972;32;37887;-83
2023/01/31 17:43:16;;;;;;;16.25;7.30;;;;;;;4.88;53.65;99942.16;7659389;32;39000;-83
2023/01/31 17:47:32;;;;;;;9.05;4.43;;;;;;;5.48;52.35;99936.81;7645749;32;40735;-83
2023/01/31 17:51:48;;;;;;;13.43;5.70;;;;;;;4.62;54.38;99942.50;7658794;32;38030;-82
2023/01/31 17:56:05;;;;;;;12.60;5.53;;;;;;;5.04;53.74;99940.66;7658870;32;37211;-85
2023/01/31 18:00:21;;;;;;;9.25;4.45;;;;;;;4.86;54.14;99941.56;7658475;32;40174;-84
2023/01/31 18:04:38;;;;;;;9.68;4.70;;;;;;;4.93;54.29;99936.03;7659025;32;40631;-83
2023/01/31 18:08:54;;;;;;;9.07;4.60;;;;;;;5.19;53.39;99928.56;7658217;32;37835;-83
2023/01/31 18:13:11;;;;;;;8.55;4.35;;;;;;;5.00;53.21;99930.53;7659034;32;37854;-82
2023/01/31 18:17:27;;;;;;;9.45;3.87;;;;;;;5.03;52.34;99930.06;7658276;32;39254;-83
2023/01/31 18:21:43;;;;;;;9.93;4.20;;;;;;;4.91;52.83;99935.44;7658853;32;40109;-83
2023/01/31 18:26:10;;;;;;;10.27;3.70;;;;;;;5.10;52.22;99928.09;7658644;32;37948;-84
2023/01/31 18:30:26;;;;;;;8.13;4.05;;;;;;;5.08;52.06;99932.91;7658171;32;37154;-83
2023/01/31 18:34:43;;;;;;;11.30;4.07;;;;;;;5.15;52.13;99930.09;7658755;32;39316;-83
2023/01/31 18:39:01;;;;;;;6.07;3.70;;;;;;;5.24;51.24;99945.75;7658090;32;38944;-83
2023/01/31 18:43:19;;;;;;;7.20;3.92;;;;;;;5.01;51.92;99937.59;7658472;32;37637;-83
2023/01/31 18:47:35;;;;;;;9.57;4.43;;;;;;;5.06;51.59;99940.41;7657274;32;38147;-83
2023/01/31 18:51:51;;;;;;;6.72;3.50;;;;;;;4.83;51.36;99931.19;7658677;32;40156;-83
2023/01/31 18:56:11;;;;;;;7.25;3.65;;;;;;;5.12;51.22;99934.06;7658638;32;41095;-82
2023/01/31 19:00:27;;;;;;;9.27;4.15;;;;;;;5.12;51.63;99931.38;7658680;32;37575;-82
2023/01/31 19:04:44;;;;;;;7.80;3.90;;;;;;;5.42;50.52;99925.06;7657671;32;37695;-82
2023/01/31 19:09:01;;;;;;;9.65;4.28;;;;;;;5.58;50.12;99924.34;7658387;32;39435;-82
2023/01/31 19:13:17;;;;;;;9.05;3.92;;;;;;;5.81;49.97;99930.81;7657711;32;40885;-79
2023/01/31 19:17:33;;;;;;;8.48;4.62;;;;;;;5.60;50.57;99938.47;7679227;32;38049;-77
2023/01/31 19:21:50;;;;;;;12.55;5.07;;;;;;;5.00;53.27;99933.22;7672854;32;37106;-83
2023/01/31 19:26:06;;;;;;;11.48;5.30;;;;;;;4.53;55.68;99938.47;7677076;32;39292;-84
2023/01/31 19:30:24;;;;;;;13.20;4.95;;;;;;;4.11;57.24;99939.22;7662408;32;39835;-83
2023/01/31 19:34:40;;;;;;;10.30;5.28;;;;;;;4.24;56.32;99938.22;7675170;32;37910;-82
2023/01/31 19:38:58;;;;;;;11.82;5.35;;;;;;;4.58;55.90;99925.94;7679447;32;37113;-82
2023/01/31 19:43:14;;;;;;;6.50;3.72;;;;;;;4.23;57.12;99931.19;7659101;32;39480;-81
2023/01/31 19:47:31;;;;;;;11.25;4.47;;;;;;;4.37;56.77;99929.97;7652136;32;41649;-81
2023/01/31 19:51:48;;;;;;;12.10;4.07;;;;;;;4.23;58.42;99933.88;7644846;32;37611;-83
2023/01/31 19:56:05;;;;;;;7.50;4.12;;;;;;;4.04;58.71;99944.69;7670162;32;37956;-82
2023/01/31 20:00:21;;;;;;;6.30;3.70;;;;;;;4.27;58.37;99929.69;7683591;32;39342;-82
2023/01/31 20:04:37;;;;;;;9.45;3.60;;;;;;;4.20;59.27;99934.34;7679109;32;39989;-83
2023/01/31 20:08:59;;;;;;;7.43;4.37;;;;;;;4.09;60.19;99931.34;7657126;32;37473;-84
2023/01/31 20:13:15;;;;;;;11.70;4.70;;;;;;;3.67;62.03;99931.16;7657056;32;36148;-83
2023/01/31 20:17:32;;;;;;;6.90;3.75;;;;;;;3.47;62.68;99952.12;7667884;32;39015;-84
2023/01/31 20:21:49;;;;;;;10.00;4.78;;;;;;;3.18;64.04;99938.25;7669657;32;40794;-83
2023/01/31 20:26:05;;;;;;;15.57;5.18;;;;;;;3.73;63.66;99935.69;7668023;32;37863;-83
2023/01/31 20:30:22;;;;;;;13.48;4.53;;;;;;;3.64;64.43;99937.03;7680216;32;36881;-84
2023/01/31 20:34:39;;;;;;;12.73;4.75;;;;;;;3.53;64.56;99929.66;7665771;32;40168;-85
2023/01/31 20:38:55;;;;;;;13.62;4.50;;;;;;;3.01;65.58;99932.56;7666467;32;39909;-83
2023/01/31 20:43:11;;;;;;;6.18;3.90;;;;;;;2.84;66.41;99924.19;7674124;32;38607;-84
2023/01/31 20:47:28;;;;;;;4.50;3.30;;;;;;;2.83;67.08;99919.88;7668594;32;36878;-83
2023/01/31 20:51:44;;;;;;;6.93;4.05;;;;;;;3.22;66.27;99917.91;7665606;32;39848;-84
2023/01/31 20:56:08;;;;;;;9.98;3.80;;;;;;;3.01;66.49;99911.84;7667373;32;39965;-82
2023/01/31 21:00:25;;;;;;;9.00;4.00;;;;;;;3.03;67.38;99902.72;7675310;32;38603;-85